Time;durP1;ratioP1;P1;durP2;ratioP2;P2;SDS_P1;SDS_P2;PMS_P1;PMS_P2;Temp;Humidity;BMP_temperature;BMP_pressure;BME280_temperature;BME280_humidity;BME280_pressure;Samples;Min_cycle;Max_cycle;Signal;HPM_P1;HPM_P2
2023/03/20 00:01:21;;;;;;;1.35;1.05;;;8.90;99.90;;;;;;6216623;23;20156;-85
2023/03/20 00:03:47;;;;;;;2.50;1.48;;;8.90;99.90;;;;;;6242934;23;20168;-85
2023/03/20 00:06:17;;;;;;;1.50;1.35;;;8.90;99.90;;;;;;6215430;23;20159;-84
2023/03/20 00:08:48;;;;;;;1.30;0.90;;;8.90;99.90;;;;;;6210491;23;20153;-85
2023/03/20 00:11:27;;;;;;;1.25;0.98;;;8.90;99.90;;;;;;6215580;23;20144;-85
2023/03/20 00:13:58;;;;;;;1.65;1.17;;;9.10;99.90;;;;;;6210698;23;20191;-85
2023/03/20 00:16:28;;;;;;;1.63;1.05;;;8.90;99.90;;;;;;6211579;23;20141;-84
2023/03/20 00:18:55;;;;;;;1.33;1.02;;;9.00;99.90;;;;;;6211163;23;20223;-83
2023/03/20 00:21:21;;;;;;;3.17;1.52;;;9.00;99.90;;;;;;6234365;23;20615;-82
2023/03/20 00:23:47;;;;;;;1.07;0.97;;;9.00;99.90;;;;;;6236184;23;20270;-84
2023/03/20 00:26:14;;;;;;;1.25;0.90;;;9.00;99.90;;;;;;6211793;23;20379;-83
2023/03/20 00:28:42;;;;;;;0.80;0.70;;;9.10;99.90;;;;;;6245217;23;20145;-82
2023/03/20 00:31:14;;;;;;;0.65;0.65;;;9.00;99.90;;;;;;6240373;23;20145;-85
2023/03/20 00:33:40;;;;;;;0.85;0.85;;;9.00;99.90;;;;;;6211912;23;20173;-83
2023/03/20 00:36:07;;;;;;;1.77;1.20;;;9.00;99.90;;;;;;6237322;23;20219;-82
2023/03/20 00:38:32;;;;;;;1.15;1.00;;;9.00;99.90;;;;;;6236759;23;20160;-84
2023/03/20 00:40:58;;;;;;;1.13;1.03;;;9.00;99.90;;;;;;6238360;23;20173;-83
2023/03/20 00:43:24;;;;;;;1.40;1.30;;;9.00;99.90;;;;;;6213290;23;20506;-83
2023/03/20 00:45:49;;;;;;;3.90;1.27;;;9.00;99.90;;;;;;6241464;23;20155;-84
2023/03/20 00:48:17;;;;;;;3.77;1.20;;;9.00;99.90;;;;;;6215749;23;20239;-83
2023/03/20 00:50:44;;;;;;;2.38;1.50;;;9.00;99.90;;;;;;6237957;23;20172;-83
2023/03/20 00:53:11;;;;;;;2.05;1.08;;;9.00;99.90;;;;;;6238346;23;20179;-85
2023/03/20 00:55:38;;;;;;;0.68;0.63;;;9.00;99.90;;;;;;6241094;23;20698;-85
2023/03/20 00:58:04;;;;;;;0.60;0.60;;;8.90;99.90;;;;;;6242876;23;20144;-85
2023/03/20 01:00:41;;;;;;;0.73;0.55;;;8.90;99.90;;;;;;6236598;23;20156;-83
2023/03/20 01:03:17;;;;;;;1.10;0.80;;;8.90;99.90;;;;;;6211405;23;20198;-84
2023/03/20 01:05:43;;;;;;;1.08;0.77;;;9.00;99.90;;;;;;6210974;23;20618;-83
2023/03/20 01:08:14;;;;;;;1.10;0.73;;;9.00;99.90;;;;;;6207517;23;20187;-85
2023/03/20 01:10:40;;;;;;;0.82;0.77;;;9.00;99.90;;;;;;6213873;23;20206;-84
2023/03/20 01:13:25;;;;;;;0.93;0.60;;;9.00;99.90;;;;;;6210029;23;20726;-85
2023/03/20 01:15:51;;;;;;;2.50;0.90;;;9.00;99.90;;;;;;6240155;23;20406;-84
2023/03/20 01:18:19;;;;;;;1.23;1.00;;;9.00;99.90;;;;;;6214011;23;20405;-84
2023/03/20 01:20:45;;;;;;;1.50;1.00;;;9.00;99.90;;;;;;6240654;23;20156;-83
2023/03/20 01:23:11;;;;;;;3.77;0.90;;;9.00;99.90;;;;;;6234610;23;20338;-81
2023/03/20 01:25:37;;;;;;;0.60;0.60;;;9.10;99.90;;;;;;6245630;23;20141;-82
2023/03/20 01:28:13;;;;;;;0.80;0.68;;;9.00;99.90;;;;;;6214909;23;20243;-83
2023/03/20 01:30:38;;;;;;;0.93;0.60;;;9.10;99.90;;;;;;6211714;23;20148;-85
2023/03/20 01:33:19;;;;;;;1.10;0.93;;;9.00;99.90;;;;;;6212659;23;20203;-85
2023/03/20 01:35:46;;;;;;;0.82;0.63;;;9.10;99.90;;;;;;6209761;23;20180;-84
2023/03/20 01:38:16;;;;;;;2.35;0.82;;;9.00;99.90;;;;;;6236841;23;21111;-84
2023/03/20 01:41:01;;;;;;;1.50;1.10;;;9.00;99.90;;;;;;6218736;23;20553;-83
2023/03/20 01:43:28;;;;;;;0.93;0.80;;;8.90;99.90;;;;;;6211592;23;20665;-85
2023/03/20 01:45:59;;;;;;;3.90;1.10;;;8.90;99.90;;;;;;6236070;23;20588;-83
2023/03/20 01:48:35;;;;;;;1.40;1.10;;;8.90;99.90;;;;;;6239516;23;20174;-83
2023/03/20 01:51:00;;;;;;;1.10;0.73;;;8.90;99.90;;;;;;6208569;23;20149;-84
2023/03/20 01:53:28;;;;;;;1.40;1.30;;;8.90;99.90;;;;;;6237262;23;20222;-81
2023/03/20 01:55:59;;;;;;;1.90;1.13;;;8.90;99.90;;;;;;6237081;23;20168;-84
2023/03/20 01:58:37;;;;;;;0.82;0.80;;;8.90;99.90;;;;;;6212680;23;20147;-82
2023/03/20 02:01:05;;;;;;;3.45;1.17;;;9.00;99.90;;;;;;6207635;23;20149;-84
2023/03/20 02:03:31;;;;;;;1.90;1.33;;;8.90;99.90;;;;;;6207333;23;20765;-82
2023/03/20 02:05:58;;;;;;;3.45;1.80;;;8.90;99.90;;;;;;6234231;23;20260;-80
2023/03/20 02:08:30;;;;;;;3.03;1.75;;;8.90;99.90;;;;;;6209167;23;20148;-80
2023/03/20 02:10:58;;;;;;;2.15;1.60;;;8.90;99.90;;;;;;6211418;23;20149;-82
2023/03/20 02:13:26;;;;;;;2.10;1.30;;;8.90;99.90;;;;;;6208717;23;20218;-85
2023/03/20 02:15:56;;;;;;;2.67;1.92;;;8.80;99.90;;;;;;6233651;23;20176;-82
2023/03/20 02:18:22;;;;;;;3.22;1.80;;;8.90;99.90;;;;;;6238208;23;20577;-81
2023/03/20 02:21:15;;;;;;;2.03;1.40;;;8.90;99.90;;;;;;6236931;23;20230;-83
2023/03/20 02:23:58;;;;;;;1.70;1.17;;;8.90;99.90;;;;;;6234501;23;20401;-85
2023/03/20 02:26:52;;;;;;;2.00;1.50;;;8.90;99.90;;;;;;6237160;23;20133;-80
2023/03/20 02:29:38;;;;;;;2.95;2.22;;;8.90;99.90;;;;;;6232721;23;20133;-85
2023/03/20 02:32:26;;;;;;;2.58;1.27;;;8.90;99.90;;;;;;6236506;23;20137;-82
2023/03/20 02:35:13;;;;;;;3.33;1.42;;;8.90;99.90;;;;;;6208947;23;20181;-84
2023/03/20 02:38:07;;;;;;;1.75;1.63;;;8.90;99.90;;;;;;6234902;23;20159;-81
2023/03/20 02:40:38;;;;;;;2.05;1.60;;;8.80;99.90;;;;;;6236964;23;20141;-80
2023/03/20 02:43:17;;;;;;;2.05;1.80;;;8.90;99.90;;;;;;6211634;23;20230;-83
2023/03/20 02:46:03;;;;;;;2.35;1.70;;;8.80;99.90;;;;;;6208033;23;20170;-82
2023/03/20 02:48:48;;;;;;;2.20;1.35;;;8.90;99.90;;;;;;6238362;23;20230;-84
2023/03/20 02:51:36;;;;;;;3.25;2.10;;;8.90;99.90;;;;;;6210151;23;20645;-81
2023/03/20 02:54:12;;;;;;;3.45;1.40;;;8.90;99.90;;;;;;6218361;23;20184;-82
2023/03/20 02:57:08;;;;;;;2.42;1.80;;;8.90;99.90;;;;;;6242376;23;20155;-84
2023/03/20 02:59:40;;;;;;;1.70;1.60;;;8.90;99.90;;;;;;6241026;23;20137;-83
2023/03/20 03:02:11;;;;;;;3.50;1.70;;;8.80;99.90;;;;;;6216732;23;20148;-84
2023/03/20 03:04:42;;;;;;;3.58;1.83;;;8.90;99.90;;;;;;6213909;23;20176;-83
2023/03/20 03:07:12;;;;;;;4.70;2.40;;;8.80;99.90;;;;;;6215103;23;20180;-84
2023/03/20 03:09:45;;;;;;;2.60;2.10;;;8.80;99.90;;;;;;6241581;23;20191;-85
2023/03/20 03:12:20;;;;;;;5.10;2.33;;;8.90;99.90;;;;;;6216004;23;20231;-82
2023/03/20 03:14:50;;;;;;;5.47;2.95;;;8.80;99.90;;;;;;6214060;23;20224;-83
2023/03/20 03:17:18;;;;;;;2.15;1.85;;;8.80;99.90;;;;;;6216729;23;20199;-82
2023/03/20 03:19:51;;;;;;;3.35;2.60;;;8.80;99.90;;;;;;6213870;23;20214;-85
2023/03/20 03:22:18;;;;;;;4.18;2.72;;;8.80;99.90;;;;;;6249429;23;20179;-83
2023/03/20 03:24:49;;;;;;;3.05;2.38;;;8.80;99.90;;;;;;6243017;23;20172;-83
2023/03/20 03:27:18;;;;;;;4.28;2.67;;;8.80;99.90;;;;;;6244696;23;21108;-81
2023/03/20 03:29:49;;;;;;;6.60;3.65;;;8.80;99.90;;;;;;6215331;23;20137;-83
2023/03/20 03:32:24;;;;;;;5.88;2.80;;;8.90;99.90;;;;;;6205537;23;20144;-81
2023/03/20 03:34:50;;;;;;;3.17;2.30;;;8.90;99.90;;;;;;6212762;23;20984;-84
2023/03/20 03:37:55;;;;;;;5.83;3.50;;;8.90;99.90;;;;;;6239472;23;20187;-81
2023/03/20 03:40:42;;;;;;;4.68;3.05;;;8.90;99.90;;;;;;6184530;23;20373;-84
2023/03/20 03:43:30;;;;;;;4.63;2.65;;;8.90;99.90;;;;;;6184705;23;20181;-83
2023/03/20 03:46:05;;;;;;;5.00;2.70;;;8.90;99.90;;;;;;6210396;23;20195;-83
2023/03/20 03:48:39;;;;;;;6.50;3.35;;;8.90;99.90;;;;;;6210436;23;20179;-82
2023/03/20 03:51:12;;;;;;;6.28;3.20;;;8.80;99.90;;;;;;6185015;23;20141;-83
2023/03/20 03:53:47;;;;;;;4.20;2.55;;;8.90;99.90;;;;;;6208786;23;20176;-82
2023/03/20 03:56:15;;;;;;;6.22;3.30;;;9.00;99.90;;;;;;6183150;23;20143;-82
2023/03/20 03:58:51;;;;;;;7.82;4.03;;;8.90;99.90;;;;;;6202189;23;20744;-82
2023/03/20 04:01:19;;;;;;;8.80;4.45;;;9.00;99.90;;;;;;6169325;23;20137;-82
2023/03/20 04:03:55;;;;;;;6.40;4.05;;;8.90;99.90;;;;;;6199521;23;20203;-82
2023/03/20 04:06:20;;;;;;;5.75;3.40;;;8.90;99.90;;;;;;6200703;23;20137;-83
2023/03/20 04:08:46;;;;;;;6.77;3.70;;;8.90;99.90;;;;;;6181818;23;20142;-84
2023/03/20 04:11:15;;;;;;;5.13;3.57;;;8.90;99.90;;;;;;6180240;23;20161;-84
2023/03/20 04:13:41;;;;;;;5.20;3.38;;;8.90;99.90;;;;;;6181223;23;20244;-82
2023/03/20 04:16:12;;;;;;;5.73;3.90;;;8.90;99.90;;;;;;6184340;23;20192;-83
2023/03/20 04:18:38;;;;;;;5.70;3.80;;;8.90;99.90;;;;;;6178764;23;20149;-83
2023/03/20 04:21:04;;;;;;;7.23;4.10;;;8.90;99.90;;;;;;6177898;23;20157;-82
2023/03/20 04:23:30;;;;;;;6.22;4.22;;;8.90;99.90;;;;;;6205095;23;20695;-84
2023/03/20 04:25:55;;;;;;;7.10;4.43;;;8.90;99.90;;;;;;6178328;23;20192;-82
2023/03/20 04:28:21;;;;;;;6.70;4.03;;;9.00;99.90;;;;;;6178723;23;20180;-83
2023/03/20 04:30:55;;;;;;;7.80;5.27;;;9.00;99.90;;;;;;6168685;23;20173;-84
2023/03/20 04:33:21;;;;;;;8.57;4.68;;;8.90;99.90;;;;;;6205506;23;20311;-82
2023/03/20 04:35:46;;;;;;;9.60;5.78;;;8.90;99.90;;;;;;6176002;23;20219;-81
2023/03/20 04:38:12;;;;;;;8.07;5.53;;;8.90;99.90;;;;;;6212455;23;20156;-81
2023/03/20 04:40:38;;;;;;;9.18;5.80;;;8.90;99.90;;;;;;6209638;23;20141;-82
2023/03/20 04:43:03;;;;;;;12.00;6.00;;;8.90;99.90;;;;;;6237956;23;20222;-84
2023/03/20 04:45:29;;;;;;;8.93;5.93;;;;;;;;;;6210393;23;20160;-80
2023/03/20 04:47:55;;;;;;;8.33;5.40;;;9.00;99.90;;;;;;6236313;23;20559;-83
2023/03/20 04:50:21;;;;;;;14.10;6.50;;;8.90;99.90;;;;;;6210048;23;20387;-81
2023/03/20 04:52:46;;;;;;;10.50;6.10;;;8.80;99.90;;;;;;6235237;23;20172;-83
2023/03/20 04:55:12;;;;;;;9.90;6.20;;;;;;;;;;6241025;23;20495;-84
2023/03/20 04:57:37;;;;;;;9.77;6.80;;;8.90;99.90;;;;;;6214064;23;20750;-85
2023/03/20 05:00:04;;;;;;;14.00;6.37;;;8.80;99.90;;;;;;6236119;23;20381;-82
2023/03/20 05:02:30;;;;;;;11.13;7.22;;;8.70;99.90;;;;;;6236246;23;20194;-83
2023/03/20 05:04:55;;;;;;;11.97;7.53;;;8.70;99.90;;;;;;6209405;23;20156;-83
2023/03/20 05:07:21;;;;;;;9.43;6.23;;;;;;;;;;6234408;23;20383;-85
2023/03/20 05:09:47;;;;;;;9.43;5.43;;;;;;;;;;6238418;23;20152;-82
2023/03/20 05:12:13;;;;;;;8.18;5.18;;;8.70;99.90;;;;;;6208744;23;20496;-82
2023/03/20 05:14:39;;;;;;;9.27;5.70;;;8.70;99.90;;;;;;6208811;23;20208;-81
2023/03/20 05:17:04;;;;;;;12.37;6.70;;;8.70;99.90;;;;;;6239881;23;20139;-82
2023/03/20 05:19:30;;;;;;;13.47;7.63;;;8.70;99.90;;;;;;6244067;23;20167;-83
2023/03/20 05:21:56;;;;;;;11.23;6.83;;;;;;;;;;6217735;23;20152;-82
2023/03/20 05:24:21;;;;;;;7.00;5.43;;;8.80;99.90;;;;;;6240757;23;20160;-83
2023/03/20 05:26:47;;;;;;;8.60;6.17;;;8.90;99.90;;;;;;6242397;23;20403;-83
2023/03/20 05:29:13;;;;;;;9.27;5.10;;;;;;;;;;6211187;23;20239;-85
2023/03/20 05:31:39;;;;;;;9.13;5.30;;;9.20;99.90;;;;;;6236177;23;20551;-82
2023/03/20 05:34:05;;;;;;;8.73;5.87;;;9.20;99.90;;;;;;6210078;23;20223;-84
2023/03/20 05:36:31;;;;;;;9.43;5.97;;;9.10;99.90;;;;;;6210435;23;20490;-85
2023/03/20 05:38:56;;;;;;;11.20;6.70;;;9.00;99.90;;;;;;6236931;23;20211;-82
2023/03/20 05:41:22;;;;;;;8.57;6.00;;;9.00;99.90;;;;;;6211360;23;20642;-81
2023/03/20 05:43:48;;;;;;;9.67;5.80;;;9.10;99.90;;;;;;6212160;23;21378;-81
2023/03/20 05:46:13;;;;;;;8.30;5.63;;;9.20;99.90;;;;;;6236311;23;20133;-81
2023/03/20 05:48:39;;;;;;;7.90;5.23;;;9.30;99.90;;;;;;6237448;23;20152;-82
2023/03/20 05:51:05;;;;;;;11.77;7.43;;;9.30;99.90;;;;;;6210278;23;20141;-85
2023/03/20 05:53:30;;;;;;;10.57;6.00;;;9.20;99.90;;;;;;6209895;23;20606;-82
2023/03/20 05:55:56;;;;;;;12.10;5.50;;;9.20;99.90;;;;;;6236714;23;20226;-84
2023/03/20 05:58:21;;;;;;;9.10;6.00;;;9.20;99.90;;;;;;6239000;23;20145;-83
2023/03/20 06:00:47;;;;;;;8.93;6.67;;;9.30;99.90;;;;;;6207807;23;20156;-82
2023/03/20 06:03:13;;;;;;;9.47;5.50;;;9.20;99.90;;;;;;6235483;23;20172;-83
2023/03/20 06:05:38;;;;;;;10.50;6.53;;;9.20;99.90;;;;;;6208679;23;20622;-82
2023/03/20 06:08:04;;;;;;;13.07;7.83;;;9.10;99.90;;;;;;6212445;23;20152;-82
2023/03/20 06:10:30;;;;;;;10.45;6.45;;;9.00;99.90;;;;;;6238518;23;20148;-85
2023/03/20 06:12:59;;;;;;;18.03;6.40;;;9.00;99.90;;;;;;6212346;23;20306;-83
2023/03/20 06:15:27;;;;;;;9.50;6.40;;;9.10;99.90;;;;;;6240050;23;20442;-82
2023/03/20 06:17:54;;;;;;;11.35;7.53;;;9.40;99.90;;;;;;6214375;23;20223;-82
2023/03/20 06:20:20;;;;;;;10.50;6.68;;;9.40;99.90;;;;;;6212587;23;20148;-82
2023/03/20 06:22:45;;;;;;;10.20;7.20;;;9.50;99.90;;;;;;6240701;23;20198;-82
2023/03/20 06:25:12;;;;;;;10.40;7.63;;;9.50;99.90;;;;;;6206384;23;20235;-82
2023/03/20 06:27:38;;;;;;;10.93;7.60;;;9.40;99.90;;;;;;6198807;23;20160;-80
2023/03/20 06:30:04;;;;;;;10.00;7.07;;;9.50;99.90;;;;;;6238107;23;20137;-83
2023/03/20 06:32:30;;;;;;;12.02;7.45;;;9.70;99.90;;;;;;6234693;23;20480;-83
2023/03/20 06:34:56;;;;;;;13.10;7.80;;;9.40;99.90;;;;;;6235005;23;20164;-81
2023/03/20 06:37:21;;;;;;;13.70;7.50;;;9.40;99.90;;;;;;6232266;23;21308;-84
2023/03/20 06:39:47;;;;;;;12.03;7.90;;;9.40;99.90;;;;;;6231711;23;20175;-82
2023/03/20 06:42:12;;;;;;;14.13;7.27;;;9.60;99.90;;;;;;6235325;23;20575;-81
2023/03/20 06:44:39;;;;;;;14.43;8.90;;;9.70;99.90;;;;;;6205451;23;20183;-81
2023/03/20 06:47:04;;;;;;;10.23;7.30;;;9.70;99.90;;;;;;6203622;23;20167;-82
2023/03/20 06:49:30;;;;;;;14.60;7.57;;;9.80;99.90;;;;;;6230693;23;20152;-81
2023/03/20 06:51:56;;;;;;;11.00;7.77;;;10.10;99.90;;;;;;6236313;23;20152;-81
2023/03/20 06:54:21;;;;;;;12.30;7.43;;;10.40;99.90;;;;;;6240960;23;20168;-83
2023/03/20 06:56:47;;;;;;;11.27;7.17;;;10.60;99.90;;;;;;6234176;23;20152;-83
2023/03/20 06:59:12;;;;;;;10.03;6.57;;;11.20;99.90;;;;;;6207785;23;20156;-84
2023/03/20 07:01:38;;;;;;;11.87;7.80;;;11.90;99.90;;;;;;6205091;23;20156;-85
2023/03/20 07:04:04;;;;;;;10.13;6.90;;;12.20;99.90;;;;;;6207160;23;20467;-82
2023/03/20 07:06:31;;;;;;;7.85;6.15;;;11.80;99.90;;;;;;6211726;23;20902;-83
2023/03/20 07:08:56;;;;;;;11.70;8.23;;;11.70;99.90;;;;;;6206243;23;20156;-83
2023/03/20 07:11:22;;;;;;;12.50;8.93;;;11.50;99.90;;;;;;6236090;23;20157;-81
2023/03/20 07:13:48;;;;;;;11.77;7.93;;;10.90;99.90;;;;;;6234793;23;20834;-81
2023/03/20 07:16:13;;;;;;;12.23;7.63;;;10.70;99.90;;;;;;6245204;23;20368;-81
2023/03/20 07:18:39;;;;;;;14.53;8.70;;;;;;;;;;6205813;23;20419;-81
2023/03/20 07:21:06;;;;;;;11.67;7.57;;;10.50;99.90;;;;;;6212505;23;20203;-85
2023/03/20 07:23:33;;;;;;;10.70;7.22;;;10.40;99.90;;;;;;6240027;23;20383;-83
2023/03/20 07:25:59;;;;;;;11.10;6.47;;;10.50;99.90;;;;;;6234665;23;20149;-81
2023/03/20 07:28:24;;;;;;;10.87;6.60;;;10.90;99.90;;;;;;6237969;23;20149;-82
2023/03/20 07:30:50;;;;;;;11.77;6.97;;;10.90;99.90;;;;;;6236308;23;20182;-85
2023/03/20 07:33:16;;;;;;;9.57;6.77;;;10.90;99.90;;;;;;6239840;23;20172;-84
2023/03/20 07:35:42;;;;;;;9.07;7.13;;;10.50;99.90;;;;;;6238232;23;20443;-84
2023/03/20 07:38:07;;;;;;;12.10;7.13;;;10.40;99.90;;;;;;6236728;23;20197;-84
2023/03/20 07:40:33;;;;;;;19.20;7.93;;;10.10;99.90;;;;;;6234563;23;20371;-83
2023/03/20 07:43:00;;;;;;;11.70;7.40;;;10.10;99.90;;;;;;6237185;23;20175;-85
2023/03/20 07:45:25;;;;;;;11.10;6.40;;;10.10;99.90;;;;;;6235809;23;20182;-82
2023/03/20 07:47:51;;;;;;;12.57;7.20;;;10.50;99.90;;;;;;6235875;23;20854;-85
2023/03/20 07:50:16;;;;;;;16.63;8.80;;;10.80;99.90;;;;;;6236658;23;20176;-84
2023/03/20 07:52:50;;;;;;;11.53;6.10;;;11.00;99.90;;;;;;6234009;23;20701;-81
2023/03/20 07:55:16;;;;;;;16.95;7.95;;;10.90;99.90;;;;;;6236624;23;20183;-84
2023/03/20 07:57:42;;;;;;;11.77;8.18;;;10.90;99.90;;;;;;6231853;23;20484;-86
2023/03/20 08:00:08;;;;;;;10.70;7.07;;;10.60;99.90;;;;;;6236212;23;20258;-87
2023/03/20 08:02:34;;;;;;;16.02;7.38;;;10.60;99.90;;;;;;6237347;23;20407;-84
2023/03/20 08:04:59;;;;;;;13.90;8.93;;;10.50;99.90;;;;;;6239618;23;20638;-86
2023/03/20 08:07:25;;;;;;;17.27;8.17;;;10.50;99.90;;;;;;6239955;23;20203;-82
2023/03/20 08:09:51;;;;;;;15.50;8.80;;;10.30;99.90;;;;;;6237227;23;20152;-83
2023/03/20 08:12:17;;;;;;;13.27;7.40;;;10.50;99.90;;;;;;6235494;23;20176;-81
2023/03/20 08:14:43;;;;;;;12.27;8.40;;;10.60;99.90;;;;;;6237125;23;20426;-81
2023/03/20 08:17:08;;;;;;;14.93;7.40;;;10.50;99.90;;;;;;6237227;23;20148;-85
2023/03/20 08:19:35;;;;;;;15.93;8.63;;;10.80;99.90;;;;;;6236969;23;20250;-82
2023/03/20 08:22:01;;;;;;;14.07;7.30;;;11.00;99.90;;;;;;6237719;23;20176;-81
2023/03/20 08:24:26;;;;;;;13.27;7.93;;;11.20;99.90;;;;;;6239806;23;20160;-84
2023/03/20 08:26:52;;;;;;;12.17;7.80;;;11.40;99.90;;;;;;6240046;23;20155;-87
2023/03/20 08:29:18;;;;;;;12.60;7.00;;;11.50;99.90;;;;;;6235663;23;20532;-85
2023/03/20 08:31:44;;;;;;;10.60;6.90;;;11.50;99.90;;;;;;6235605;23;20627;-83
2023/03/20 08:34:10;;;;;;;10.80;7.70;;;11.90;99.90;;;;;;6241975;23;20411;-84
2023/03/20 08:36:36;;;;;;;9.60;6.07;;;12.60;99.90;;;;;;6236807;23;20144;-83
2023/03/20 08:39:01;;;;;;;11.50;6.83;;;13.20;99.90;;;;;;6239347;23;20141;-82
2023/03/20 08:41:27;;;;;;;11.17;6.33;;;13.40;99.90;;;;;;6234116;23;20400;-83
2023/03/20 08:43:52;;;;;;;10.37;6.43;;;12.80;99.90;;;;;;6237373;23;20141;-84
2023/03/20 08:46:18;;;;;;;9.80;5.83;;;12.90;99.90;;;;;;6236024;23;20148;-83
2023/03/20 08:48:43;;;;;;;13.40;6.90;;;12.60;99.90;;;;;;6238887;23;20152;-83
2023/03/20 08:51:09;;;;;;;9.23;6.03;;;13.00;99.90;;;;;;6233540;23;20186;-81
2023/03/20 08:53:35;;;;;;;13.20;6.97;;;13.00;99.90;;;;;;6236794;23;20153;-80
2023/03/20 08:56:00;;;;;;;11.07;5.70;;;12.90;99.90;;;;;;6235470;23;20317;-86
2023/03/20 08:58:26;;;;;;;8.30;5.70;;;12.70;99.90;;;;;;6235432;23;20706;-82
2023/03/20 09:00:51;;;;;;;10.33;6.10;;;12.40;99.90;;;;;;6235867;23;20663;-86
2023/03/20 09:03:19;;;;;;;8.27;5.53;;;12.50;99.90;;;;;;6236294;23;20252;-85
2023/03/20 09:05:51;;;;;;;10.32;6.30;;;12.60;99.90;;;;;;6234558;23;20144;-82
2023/03/20 09:08:16;;;;;;;7.88;5.75;;;12.70;99.90;;;;;;6230209;23;20263;-83
2023/03/20 09:10:42;;;;;;;8.60;5.00;;;12.40;99.90;;;;;;6235714;23;20148;-85
2023/03/20 09:13:08;;;;;;;12.17;6.00;;;12.60;99.90;;;;;;6235536;23;20741;-86
2023/03/20 09:15:35;;;;;;;8.68;4.85;;;12.50;99.90;;;;;;6236946;23;20164;-82
2023/03/20 09:18:00;;;;;;;8.00;5.20;;;12.60;99.90;;;;;;6232829;23;20283;-82
2023/03/20 09:20:26;;;;;;;7.50;5.10;;;12.80;99.90;;;;;;6235765;23;20473;-85
2023/03/20 09:22:51;;;;;;;9.50;5.90;;;12.80;99.90;;;;;;6236846;23;20195;-84
2023/03/20 09:25:17;;;;;;;9.43;5.87;;;12.70;99.90;;;;;;6234751;23;20149;-85
2023/03/20 09:27:42;;;;;;;8.20;5.10;;;12.30;99.90;;;;;;6237326;23;20536;-84
2023/03/20 09:30:10;;;;;;;5.70;4.17;;;12.20;99.90;;;;;;6231250;23;20183;-86
2023/03/20 09:32:35;;;;;;;9.68;4.50;;;12.10;99.90;;;;;;6236122;23;20255;-84
2023/03/20 09:35:02;;;;;;;9.00;5.23;;;12.40;99.90;;;;;;6234016;23;20210;-84
2023/03/20 09:37:28;;;;;;;9.95;5.47;;;12.50;99.90;;;;;;6232099;23;20141;-84
2023/03/20 09:39:54;;;;;;;7.50;4.90;;;12.20;99.90;;;;;;6234245;23;20137;-81
2023/03/20 09:42:31;;;;;;;12.00;6.97;;;12.10;99.90;;;;;;6234708;23;20168;-82
2023/03/20 09:45:14;;;;;;;11.15;6.85;;;12.00;99.90;;;;;;6235061;23;20150;-84
2023/03/20 09:47:52;;;;;;;9.50;5.85;;;12.20;99.90;;;;;;6236810;23;20815;-82
2023/03/20 09:50:34;;;;;;;13.43;5.47;;;12.30;99.90;;;;;;6237469;23;20664;-81
2023/03/20 09:53:05;;;;;;;10.77;5.90;;;12.20;99.90;;;;;;6237503;23;20172;-83
2023/03/20 09:55:37;;;;;;;9.63;6.10;;;12.60;99.90;;;;;;6234878;23;20206;-83
2023/03/20 09:58:15;;;;;;;10.65;6.82;;;12.80;99.90;;;;;;6239837;23;20194;-84
2023/03/20 10:00:45;;;;;;;9.10;6.28;;;12.60;99.90;;;;;;6238148;23;20168;-83
2023/03/20 10:03:47;;;;;;;8.02;5.57;;;12.20;99.90;;;;;;6237181;23;20168;-82
2023/03/20 10:06:15;;;;;;;8.55;5.43;;;11.90;99.90;;;;;;6231359;22;20152;-81
2023/03/20 10:08:42;;;;;;;11.85;4.53;;;11.80;99.90;;;;;;6237457;23;20137;-85
2023/03/20 10:11:26;;;;;;;8.75;5.47;;;11.70;99.90;;;;;;6234667;23;20191;-83
2023/03/20 10:14:29;;;;;;;8.10;4.57;;;11.50;99.90;;;;;;6240330;23;20230;-83
2023/03/20 10:17:00;;;;;;;18.00;5.82;;;11.40;99.90;;;;;;6234336;23;20565;-83
2023/03/20 10:19:30;;;;;;;11.05;5.88;;;11.50;99.90;;;;;;6239499;23;20233;-84
2023/03/20 10:22:25;;;;;;;8.80;6.72;;;11.50;99.90;;;;;;6213121;23;20823;-84
2023/03/20 10:25:12;;;;;;;13.13;5.75;;;11.90;99.90;;;;;;6241102;23;20140;-81
2023/03/20 10:27:48;;;;;;;8.57;5.75;;;12.00;99.90;;;;;;6241219;23;20183;-83
2023/03/20 10:30:52;;;;;;;9.52;6.25;;;12.00;99.90;;;;;;6214674;23;20214;-84
2023/03/20 10:33:35;;;;;;;7.60;4.85;;;12.20;99.90;;;;;;6209410;23;20194;-82
2023/03/20 10:36:22;;;;;;;8.52;5.57;;;12.50;99.90;;;;;;6238750;23;20160;-85
2023/03/20 10:39:01;;;;;;;10.73;5.88;;;12.30;99.90;;;;;;6209574;23;20145;-84
2023/03/20 10:41:32;;;;;;;9.30;5.70;;;12.60;99.90;;;;;;6209783;23;20199;-86
2023/03/20 10:43:59;;;;;;;11.93;6.50;;;12.70;99.90;;;;;;6209237;23;20476;-86
2023/03/20 10:46:31;;;;;;;10.07;6.50;;;12.90;99.90;;;;;;6207432;23;20781;-82
2023/03/20 10:49:02;;;;;;;10.43;5.30;;;12.90;99.90;;;;;;6207491;23;20280;-80
2023/03/20 10:51:51;;;;;;;8.73;5.25;;;13.00;99.90;;;;;;6236543;23;20390;-84
2023/03/20 10:54:32;;;;;;;12.20;5.85;;;13.60;99.90;;;;;;6209943;23;20172;-84
2023/03/20 10:57:00;;;;;;;8.00;5.70;;;13.60;99.90;;;;;;6231967;23;20438;-83
2023/03/20 10:59:31;;;;;;;6.15;3.75;;;13.80;99.90;;;;;;6210149;23;20372;-83
2023/03/20 11:01:57;;;;;;;7.13;4.30;;;13.60;99.90;;;;;;6209836;23;20238;-82
2023/03/20 11:04:22;;;;;;;5.77;3.70;;;13.40;99.90;;;;;;6239999;23;20364;-81
2023/03/20 11:07:30;;;;;;;8.40;4.97;;;13.30;99.90;;;;;;6234260;23;20206;-86
2023/03/20 11:10:09;;;;;;;7.07;4.47;;;13.00;99.90;;;;;;6110106;23;20560;-84
2023/03/20 11:12:40;;;;;;;11.63;3.87;;;12.90;99.90;;;;;;6110598;23;20462;-84
2023/03/20 11:15:45;;;;;;;10.20;5.80;;;12.90;99.90;;;;;;6159111;23;20709;-83
2023/03/20 11:18:14;;;;;;;10.10;5.28;;;13.30;99.90;;;;;;6123614;23;20410;-84
2023/03/20 11:20:50;;;;;;;7.53;4.53;;;13.20;99.90;;;;;;6140785;23;20161;-85
2023/03/20 11:23:22;;;;;;;10.77;4.93;;;12.90;99.90;;;;;;6193411;22;20494;-82
2023/03/20 11:26:03;;;;;;;9.40;5.68;;;12.20;99.90;;;;;;6230837;23;20633;-84
2023/03/20 11:28:37;;;;;;;5.72;3.90;;;12.00;99.90;;;;;;6233147;23;20602;-83
2023/03/20 11:31:15;;;;;;;6.88;5.38;;;11.60;99.90;;;;;;6233671;23;20457;-85
2023/03/20 11:33:49;;;;;;;6.55;4.63;;;11.60;99.90;;;;;;6231552;23;20151;-83
2023/03/20 11:36:31;;;;;;;6.70;4.60;;;11.60;99.90;;;;;;6234052;23;20160;-82
2023/03/20 11:39:04;;;;;;;7.75;5.22;;;11.70;99.90;;;;;;6232052;23;20145;-83
2023/03/20 11:41:30;;;;;;;6.50;3.90;;;;;;;;;;6234225;23;20227;-82
2023/03/20 11:43:56;;;;;;;9.57;5.37;;;12.60;99.90;;;;;;6233002;22;20439;-81
2023/03/20 11:46:23;;;;;;;6.97;4.73;;;12.70;99.90;;;;;;6233246;23;20705;-83
2023/03/20 11:49:19;;;;;;;4.15;3.55;;;13.00;99.90;;;;;;6236250;23;20132;-82
2023/03/20 11:51:45;;;;;;;7.95;4.85;;;13.00;99.90;;;;;;6234744;23;20669;-83
2023/03/20 11:54:17;;;;;;;5.93;3.20;;;12.90;99.90;;;;;;6235007;23;20133;-81
2023/03/20 11:56:54;;;;;;;8.95;2.65;;;12.90;99.90;;;;;;6231054;23;20624;-85
2023/03/20 11:59:21;;;;;;;6.35;3.85;;;12.70;99.90;;;;;;6236507;23;20128;-82
2023/03/20 12:01:50;;;;;;;7.80;5.00;;;12.70;99.90;;;;;;6236577;23;20505;-83
2023/03/20 12:04:26;;;;;;;6.00;4.57;;;12.70;99.90;;;;;;6236277;23;20151;-84
2023/03/20 12:07:23;;;;;;;6.57;4.27;;;13.20;99.90;;;;;;6235284;23;20148;-85
2023/03/20 12:10:01;;;;;;;7.00;3.63;;;13.60;99.90;;;;;;6235422;23;20417;-81
2023/03/20 12:12:42;;;;;;;4.60;3.53;;;14.20;99.90;;;;;;6237938;23;20391;-83
2023/03/20 12:15:17;;;;;;;10.67;4.20;;;13.80;99.90;;;;;;6235695;23;20414;-83
2023/03/20 12:17:42;;;;;;;7.13;3.85;;;13.50;99.90;;;;;;6234567;23;20395;-84
2023/03/20 12:20:33;;;;;;;4.80;3.47;;;13.30;99.90;;;;;;6233845;23;20145;-82
2023/03/20 12:23:28;;;;;;;4.25;2.70;;;13.00;99.90;;;;;;6238039;23;20195;-84
2023/03/20 12:26:08;;;;;;;6.15;3.17;;;13.20;99.90;;;;;;6236097;22;20137;-82
2023/03/20 12:28:45;;;;;;;8.98;4.15;;;13.30;99.90;;;;;;6238058;23;20575;-80
2023/03/20 12:31:42;;;;;;;6.53;3.83;;;13.10;99.90;;;;;;6233638;23;20400;-83
2023/03/20 12:34:25;;;;;;;6.60;4.30;;;13.50;99.90;;;;;;6238139;22;20505;-85
2023/03/20 12:36:51;;;;;;;9.20;4.00;;;13.90;99.90;;;;;;6237999;23;20133;-80
2023/03/20 12:39:23;;;;;;;4.97;3.23;;;14.00;99.90;;;;;;6239714;23;20352;-85
2023/03/20 12:42:23;;;;;;;5.97;3.50;;;14.70;99.90;;;;;;6239287;23;20399;-85
2023/03/20 12:45:17;;;;;;;4.40;3.17;;;14.60;99.90;;;;;;6241177;22;20458;-82
2023/03/20 12:48:30;;;;;;;5.67;3.57;;;13.70;99.90;;;;;;6206115;23;20391;-82
2023/03/20 12:50:59;;;;;;;7.20;3.53;;;14.60;99.90;;;;;;6213619;22;20375;-85
2023/03/20 12:54:05;;;;;;;5.57;3.50;;;14.60;99.90;;;;;;6240443;23;20364;-86
2023/03/20 12:56:54;;;;;;;3.40;2.83;;;15.00;99.90;;;;;;6231044;23;20406;-83
2023/03/20 12:59:43;;;;;;;5.97;3.23;;;15.30;99.90;;;;;;6238425;23;20371;-84
2023/03/20 13:02:24;;;;;;;5.77;3.53;;;14.50;99.90;;;;;;6239033;23;20402;-82
2023/03/20 13:05:05;;;;;;;5.07;2.97;;;14.70;99.90;;;;;;6235419;23;20367;-81
2023/03/20 13:07:57;;;;;;;5.87;3.10;;;14.90;99.90;;;;;;6229258;23;20379;-84
2023/03/20 13:10:31;;;;;;;7.30;4.17;;;14.40;99.90;;;;;;6235071;23;20845;-83
2023/03/20 13:13:34;;;;;;;5.53;3.30;;;14.40;99.90;;;;;;6237072;23;20455;-82